Hovedside
METAR-TAF:

METAR-TAF

Lufthavner :

Kalmar, Sverige

Kalmar lufthavn

breddegrad: 56-44N, lengdegrad: 016-18E, høyde over havet: 16 m

Gjeldene værobservasjon

Denne rapporten ble laget for 28 minutter siden, klokken 19:50 UTC
Vind 7 kt fra Sørvest
Temperatur 19°C
Luftfuktighet 68%
Trykk 1009 hPa
Sikt 10 km eller mer
ingen skyer under 1500 m og ingen bygeskyer

METAR: ESMQ 281950Z 23007KT CAVOK 19/13 Q1009

Tid: 22:18 (20:18 UTC)

Varsel

Denne rapporten ble laget for 2 timer og 48 minutter siden, klokken 17:30 UTC
Varsel gyldig fra 28. klokken 18 UTC til 28. klokken 22 UTC
Vind 6 kt fra Sør-sørvest
Sikt 10 km eller mer
ingen skyer under 1500 m og ingen bygeskyer

TAF: ESMQ 281730Z 2818/2822 21006KT CAVOK

Værobservasjoner og værvarsel for over 4000 flyplasser (METAR- og TAF-rapporter).

Tilgjengelige stasjoner er representert av de røde og gule prikkene på kartet.

Hold musepekeren over prikken for å se navnet på stasjonen.

Klikk så for å se værobservasjoner og -varsler.

For å forandre kartet kan du klikke på den grønne knappen med svart kryss for å zoome inn, på den grønne knappen med strek for å zoome ut, eller på de grønne pilene for å se tilstøtende kart.


METAR-TAF: